Time;durP1;ratioP1;P1;durP2;ratioP2;P2;SDS_P1;SDS_P2;PMS_P1;PMS_P2;Temp;Humidity;BMP_temperature;BMP_pressure;BME280_temperature;BME280_humidity;BME280_pressure;Samples;Min_cycle;Max_cycle;Signal;HPM_P1;HPM_P2
2022/01/12 00:04:54;;;;;;;14.30;6.63;;;;;;;-0.86;78.58;102636.88;10497935;28;20546;-63
2022/01/12 00:09:58;;;;;;;15.23;6.20;;;;;;;-0.82;78.84;102626.09;10497138;28;20212;-65
2022/01/12 00:15:01;;;;;;;13.07;6.63;;;;;;;-0.89;78.13;102632.44;10498279;28;20204;-64
2022/01/12 00:20:06;;;;;;;15.33;6.37;;;;;;;-0.94;78.98;102635.44;10497845;28;20218;-67
2022/01/12 00:25:27;;;;;;;12.13;5.97;;;;;;;-0.84;77.33;102632.75;10498082;28;20212;-64
2022/01/12 00:35:54;;;;;;;19.50;5.60;;;;;;;-0.86;78.98;102635.19;10456038;28;20694;-61
2022/01/12 00:40:58;;;;;;;10.20;5.03;;;;;;;-0.88;78.91;102629.09;10456335;28;20173;-63
2022/01/12 00:46:01;;;;;;;11.50;4.67;;;;;;;-0.94;78.42;102630.34;10455958;28;20312;-64
2022/01/12 00:51:11;;;;;;;13.37;5.03;;;;;;;-0.94;79.41;102623.59;10455735;28;20268;-64
2022/01/12 00:56:14;;;;;;;12.27;5.73;;;;;;;-0.98;79.09;102629.22;10456098;28;20284;-65
2022/01/12 01:01:19;;;;;;;12.97;6.27;;;;;;;-1.12;78.16;102622.22;10455404;28;20794;-63
2022/01/12 01:06:23;;;;;;;15.27;6.67;;;;;;;-0.97;78.88;102620.81;10455277;28;20232;-62
2022/01/12 01:11:27;;;;;;;13.23;5.53;;;;;;;-0.94;79.04;102621.03;10455626;28;20280;-65
2022/01/12 01:16:47;;;;;;;14.40;6.33;;;;;;;-0.98;79.36;102621.56;10455064;28;20254;-65
2022/01/12 01:27:12;;;;;;;13.90;5.57;;;;;;;-0.97;79.36;102625.03;10492627;28;20274;-63
2022/01/12 01:32:16;;;;;;;12.67;5.43;;;;;;;-0.94;80.22;102618.47;10546558;28;20203;-63
2022/01/12 01:37:21;;;;;;;14.47;6.47;;;;;;;-0.94;80.99;102626.13;10546209;28;20609;-65
2022/01/12 01:42:30;;;;;;;12.27;6.17;;;;;;;-1.02;80.09;102618.72;10545575;28;20202;-66
2022/01/12 01:58:18;;;;;;;15.00;6.30;;;;;;;-0.98;80.79;102619.03;10545130;28;20652;-62
2022/01/12 02:03:25;;;;;;;15.00;6.30;;;;;;;-1.02;80.54;102622.16;10545084;28;20235;-65
2022/01/12 02:08:30;;;;;;;16.20;7.43;;;;;;;-1.14;80.79;102628.91;10544951;28;20225;-65
2022/01/12 02:13:38;;;;;;;15.17;7.43;;;;;;;-1.04;81.51;102623.69;10544408;28;20246;-62
2022/01/12 02:19:06;;;;;;;18.97;7.70;;;;;;;-1.03;81.84;102624.56;10544395;28;20211;-63
2022/01/12 02:35:20;;;;;;;15.70;7.37;;;;;;;-1.19;82.57;102612.38;10444919;28;20228;-65
2022/01/12 02:40:26;;;;;;;15.40;7.20;;;;;;;-1.24;82.25;102606.06;10501438;28;20551;-64
2022/01/12 02:50:57;;;;;;;17.23;7.57;;;;;;;-1.23;83.05;102612.94;10501367;28;20230;-65
2022/01/12 02:56:02;;;;;;;16.13;8.03;;;;;;;-1.29;83.79;102597.22;10501271;28;20299;-61
2022/01/12 03:06:33;;;;;;;18.27;8.10;;;;;;;-1.29;83.82;102602.31;10474867;28;20669;-63
2022/01/12 03:11:39;;;;;;;18.43;7.73;;;;;;;-1.30;83.56;102592.91;10500181;28;20212;-62
2022/01/12 03:16:43;;;;;;;19.03;8.50;;;;;;;-1.32;83.92;102607.19;10500229;28;20681;-63
2022/01/12 03:21:46;;;;;;;23.90;11.23;;;;;;;-1.30;83.13;102615.81;10499749;28;20224;-63
2022/01/12 03:26:50;;;;;;;18.87;9.40;;;;;;;-1.21;83.58;102613.94;10511363;28;20243;-64
2022/01/12 03:31:56;;;;;;;20.13;8.97;;;;;;;-1.25;84.18;102620.47;10541567;28;20568;-69
2022/01/12 03:37:28;;;;;;;23.80;9.40;;;;;;;-1.23;85.06;102620.59;10541167;28;20308;-69
2022/01/12 03:42:33;;;;;;;21.60;9.77;;;;;;;-1.21;84.89;102627.56;10540895;28;20211;-65
2022/01/12 03:47:36;;;;;;;19.20;8.53;;;;;;;-1.27;85.18;102614.38;10540637;28;20223;-66
2022/01/12 03:52:39;;;;;;;17.83;7.87;;;;;;;-1.28;85.06;102616.81;10543016;28;20211;-68
2022/01/12 03:57:45;;;;;;;16.50;7.07;;;;;;;-1.36;85.10;102610.25;10543606;28;20279;-64
2022/01/12 04:02:48;;;;;;;15.50;7.53;;;;;;;-1.44;86.44;102616.47;10543320;28;20221;-65
2022/01/12 04:13:27;;;;;;;17.70;6.73;;;;;;;-1.59;86.30;102597.53;10490803;28;20231;-67
2022/01/12 04:18:30;;;;;;;14.23;6.90;;;;;;;-1.58;86.81;102605.25;10543079;28;20687;-66
2022/01/12 04:23:35;;;;;;;19.47;6.83;;;;;;;-1.68;86.91;102604.47;10542701;28;20234;-66
2022/01/12 04:28:42;;;;;;;15.30;6.67;;;;;;;-1.69;87.94;102607.78;10543268;28;20211;-67
2022/01/12 04:33:47;;;;;;;17.07;7.40;;;;;;;-1.67;88.41;102606.22;10542660;28;20665;-64
2022/01/12 04:38:50;;;;;;;16.07;6.97;;;;;;;-1.66;88.76;102618.19;10542311;28;20207;-66
2022/01/12 04:43:56;;;;;;;18.03;7.27;;;;;;;-1.66;89.32;102621.63;10542208;28;20227;-66
2022/01/12 04:54:25;;;;;;;16.07;7.63;;;;;;;-1.71;90.03;102612.75;10531910;28;20242;-63
2022/01/12 04:59:32;;;;;;;19.50;7.33;;;;;;;-1.59;89.65;102610.25;10548071;28;20231;-67
2022/01/12 05:15:34;;;;;;;19.87;7.93;;;;;;;-1.51;90.49;102611.69;10550473;28;20219;-65
2022/01/12 05:20:38;;;;;;;18.33;7.97;;;;;;;-1.48;90.52;102614.44;10550015;28;20215;-72
2022/01/12 05:25:41;;;;;;;15.60;7.97;;;;;;;-1.51;90.22;102602.41;10549478;28;20302;-69
2022/01/12 05:30:46;;;;;;;16.67;7.33;;;;;;;-1.50;90.20;102608.38;10549306;28;20579;-66
2022/01/12 05:35:51;;;;;;;17.63;7.83;;;;;;;-1.57;89.78;102607.03;10549377;28;20222;-66
2022/01/12 05:40:59;;;;;;;21.50;8.03;;;;;;;-1.55;90.43;102605.47;10548879;28;20244;-65
2022/01/12 05:46:10;;;;;;;16.53;7.33;;;;;;;-1.60;90.07;102603.38;10548822;28;20232;-66
2022/01/12 05:51:13;;;;;;;15.40;7.23;;;;;;;-1.62;90.45;102598.16;10548581;28;20302;-64
2022/01/12 05:56:17;;;;;;;20.87;7.83;;;;;;;-1.58;90.30;102597.63;10548607;28;20230;-66
2022/01/12 06:01:22;;;;;;;15.73;6.67;;;;;;;-1.58;89.50;102597.63;10548001;28;20313;-65
2022/01/12 06:06:25;;;;;;;17.57;7.80;;;;;;;-1.60;90.27;102600.81;10547890;28;20267;-65
2022/01/12 06:11:29;;;;;;;16.08;7.63;;;;;;;-1.54;89.84;102596.19;10190007;27;9999799;-64
2022/01/12 06:16:33;;;;;;;19.67;9.30;;;;;;;-1.56;89.56;102611.38;10495171;28;20224;-63
2022/01/12 06:21:37;;;;;;;17.33;8.33;;;;;;;-1.49;90.45;102602.50;10501792;28;20222;-66
2022/01/12 06:26:41;;;;;;;17.70;9.13;;;;;;;-1.41;90.24;102599.75;10499633;28;20695;-62
2022/01/12 06:31:49;;;;;;;16.03;8.40;;;;;;;-1.33;90.06;102608.81;10501848;28;20215;-63
2022/01/12 06:36:52;;;;;;;19.60;8.50;;;;;;;-1.33;91.22;102615.59;10500805;28;20230;-64
2022/01/12 06:41:58;;;;;;;20.07;9.00;;;;;;;-1.31;91.60;102622.56;10501279;28;20234;-65
2022/01/12 06:47:04;;;;;;;25.17;10.63;;;;;;;-1.46;92.60;102628.19;10490781;28;20228;-63
2022/01/12 06:52:07;;;;;;;25.77;11.13;;;;;;;-1.46;94.14;102620.56;10459520;28;20213;-65
2022/01/12 06:57:11;;;;;;;23.57;9.93;;;;;;;-1.42;94.41;102630.19;10463783;28;20230;-66
2022/01/12 07:02:15;;;;;;;29.43;11.40;;;;;;;-1.35;94.37;102628.19;10475760;28;20219;-66
2022/01/12 07:07:18;;;;;;;26.90;10.43;;;;;;;-1.39;94.55;102648.25;10499916;28;20527;-63
2022/01/12 07:12:25;;;;;;;27.10;11.70;;;;;;;-1.28;94.25;102634.66;10510504;28;20219;-64
2022/01/12 07:17:29;;;;;;;23.13;11.73;;;;;;;-1.39;94.55;102636.41;10541398;28;20276;-61
2022/01/12 07:22:32;;;;;;;26.50;12.93;;;;;;;-1.29;94.35;102643.94;10487743;28;20237;-66
2022/01/12 07:27:36;;;;;;;32.33;14.50;;;;;;;-1.21;92.24;102642.84;10458249;28;20312;-62
2022/01/12 07:32:41;;;;;;;31.47;14.13;;;;;;;-1.02;91.73;102649.28;10457744;28;20223;-61
2022/01/12 07:37:44;;;;;;;30.23;12.03;;;;;;;-0.86;87.75;102647.94;10457735;28;20225;-64
2022/01/12 07:42:47;;;;;;;31.80;13.30;;;;;;;-0.76;86.28;102650.38;10457729;28;20304;-61
2022/01/12 07:47:52;;;;;;;28.90;13.17;;;;;;;-0.99;84.50;102649.50;10456992;28;20224;-63
2022/01/12 07:52:55;;;;;;;22.00;11.27;;;;;;;-1.03;83.99;102648.38;10457277;28;20809;-64
2022/01/12 07:57:59;;;;;;;26.90;13.47;;;;;;;-0.71;82.62;102633.78;10456947;28;20227;-63
2022/01/12 08:03:04;;;;;;;25.77;12.00;;;;;;;-0.57;83.07;102622.84;10456630;28;20220;-64
2022/01/12 08:08:07;;;;;;;24.77;11.20;;;;;;;-0.51;81.83;102638.59;10456787;28;20239;-64
2022/01/12 08:13:11;;;;;;;26.67;12.63;;;;;;;-0.43;83.09;102629.81;10456232;28;20217;-63
2022/01/12 08:18:15;;;;;;;27.93;12.63;;;;;;;-0.43;84.42;102629.81;10483259;28;20223;-63
2022/01/12 08:23:19;;;;;;;30.10;12.20;;;;;;;-0.26;83.55;102620.81;10489018;28;20240;-66
2022/01/12 08:28:23;;;;;;;24.73;11.40;;;;;;;-0.20;84.16;102618.66;10455812;28;20224;-67
2022/01/12 08:33:28;;;;;;;23.77;11.93;;;;;;;-0.12;83.82;102614.97;10455206;28;20639;-67
2022/01/12 08:38:32;;;;;;;25.70;12.43;;;;;;;-0.09;82.58;102613.50;10455821;28;20216;-67
2022/01/12 08:43:35;;;;;;;24.57;11.43;;;;;;;-0.02;82.25;102608.03;10455546;28;20228;-63
2022/01/12 08:48:40;;;;;;;25.27;10.63;;;;;;;-0.03;80.05;102607.94;10455519;28;20228;-64
2022/01/12 08:53:43;;;;;;;24.97;11.27;;;;;;;0.06;80.02;102616.22;10455712;28;20565;-67
2022/01/12 08:58:47;;;;;;;24.10;10.63;;;;;;;0.14;79.14;102619.31;10455381;28;20220;-64
2022/01/12 09:03:52;;;;;;;23.87;9.63;;;;;;;0.15;78.16;102613.41;10455719;28;20237;-64
2022/01/12 09:08:55;;;;;;;19.83;9.30;;;;;;;0.14;77.35;102609.09;10455386;28;20233;-67
2022/01/12 09:13:59;;;;;;;17.17;7.67;;;;;;;0.26;74.95;102609.91;10455682;28;20218;-67
2022/01/12 09:19:04;;;;;;;19.53;7.30;;;;;;;0.38;74.45;102600.53;10455263;28;20594;-64
2022/01/12 09:24:07;;;;;;;15.87;7.13;;;;;;;0.44;71.32;102588.16;10454891;28;20221;-64
2022/01/12 09:29:10;;;;;;;14.23;6.23;;;;;;;0.47;70.80;102575.56;10455015;28;20650;-67
2022/01/12 09:34:15;;;;;;;14.57;6.37;;;;;;;0.58;71.77;102590.84;10454751;28;20745;-64
2022/01/12 09:39:18;;;;;;;12.10;4.77;;;;;;;0.84;68.72;102575.53;10454675;28;20326;-66
2022/01/12 09:44:29;;;;;;;14.60;4.97;;;;;;;0.64;68.66;102581.00;10480431;28;20573;-65
2022/01/12 09:49:34;;;;;;;12.37;5.27;;;;;;;0.64;69.40;102563.13;10503325;28;20243;-66
2022/01/12 09:54:37;;;;;;;10.40;5.07;;;;;;;0.41;67.96;102570.97;10502898;28;21007;-63
2022/01/12 09:59:41;;;;;;;13.73;5.20;;;;;;;0.36;67.78;102571.44;10502956;28;20250;-65
2022/01/12 10:04:46;;;;;;;17.67;5.73;;;;;;;0.55;67.39;102580.41;10502057;28;20228;-64
2022/01/12 10:09:50;;;;;;;14.03;5.53;;;;;;;0.58;67.50;102577.16;10502845;28;20298;-67
2022/01/12 10:14:58;;;;;;;12.73;6.03;;;;;;;0.51;67.56;102577.56;10485394;28;20671;-63
2022/01/12 10:20:13;;;;;;;14.67;5.40;;;;;;;0.41;67.02;102570.06;10460832;28;20540;-65
2022/01/12 10:25:20;;;;;;;14.33;5.30;;;;;;;0.43;66.91;102550.63;10460825;28;20227;-68
2022/01/12 10:30:25;;;;;;;14.13;5.20;;;;;;;0.56;66.35;102546.41;10460314;28;20273;-64
2022/01/12 10:35:32;;;;;;;13.90;6.20;;;;;;;0.34;65.77;102542.38;10460448;28;20296;-63
2022/01/12 10:40:47;;;;;;;16.53;5.70;;;;;;;0.49;66.23;102551.03;10460051;28;20216;-64
2022/01/12 10:45:50;;;;;;;13.63;5.83;;;;;;;0.37;66.62;102561.31;10459672;28;20303;-65
2022/01/12 10:50:56;;;;;;;14.50;6.83;;;;;;;0.52;67.04;102551.25;10459812;28;20259;-64
2022/01/12 10:56:05;;;;;;;13.97;6.13;;;;;;;0.52;65.78;102562.31;10458547;28;20685;-64
2022/01/12 11:01:10;;;;;;;15.40;6.10;;;;;;;0.69;66.52;102548.97;10460067;28;20220;-67
2022/01/12 11:06:15;;;;;;;15.50;5.30;;;;;;;0.91;65.66;102546.13;10499795;28;20254;-65
2022/01/12 11:11:20;;;;;;;14.33;6.23;;;;;;;1.11;65.04;102546.59;10501376;28;20535;-62
2022/01/12 11:16:26;;;;;;;13.27;5.53;;;;;;;1.42;63.95;102549.38;10484704;28;20677;-63
2022/01/12 11:21:41;;;;;;;13.20;5.50;;;;;;;1.31;64.03;102552.97;10459464;28;20556;-64
2022/01/12 11:26:49;;;;;;;14.63;6.47;;;;;;;1.45;64.15;102535.91;10458105;28;20248;-63
2022/01/12 11:31:52;;;;;;;23.93;9.33;;;;;;;1.80;60.42;102528.66;10458389;28;20238;-66
2022/01/12 11:36:57;;;;;;;16.87;6.30;;;;;;;1.54;61.94;102526.19;10457759;28;20231;-64
2022/01/12 11:42:00;;;;;;;14.43;5.77;;;;;;;1.43;62.89;102523.00;10457575;28;20220;-67
2022/01/12 11:47:05;;;;;;;14.60;5.57;;;;;;;1.09;62.31;102531.94;10457318;28;20709;-64
2022/01/12 11:52:17;;;;;;;13.87;5.40;;;;;;;1.30;63.30;102524.69;10457636;28;20223;-64
2022/01/12 11:57:32;;;;;;;14.27;5.83;;;;;;;1.21;63.08;102506.25;10457291;28;20308;-66
2022/01/12 12:02:43;;;;;;;15.03;6.27;;;;;;;1.49;62.61;102500.34;10456865;28;20511;-62
2022/01/12 12:07:50;;;;;;;22.23;7.50;;;;;;;1.25;63.26;102493.75;10456392;28;20233;-65
2022/01/12 12:12:55;;;;;;;13.90;7.07;;;;;;;1.16;63.80;102490.63;10485214;28;20348;-67
2022/01/12 12:18:03;;;;;;;12.47;6.17;;;;;;;1.07;64.06;102498.59;10470791;28;20231;-66
2022/01/12 12:23:08;;;;;;;16.63;6.77;;;;;;;0.92;64.05;102497.66;10456087;28;20312;-66
2022/01/12 12:28:13;;;;;;;18.13;8.27;;;;;;;0.69;65.17;102491.91;10455994;28;20555;-63
2022/01/12 12:33:16;;;;;;;19.27;8.27;;;;;;;0.51;66.02;102490.72;10455620;28;20666;-63
2022/01/12 12:38:22;;;;;;;17.20;9.23;;;;;;;0.66;67.18;102491.69;10455806;28;20263;-63
2022/01/12 12:43:33;;;;;;;32.40;12.43;;;;;;;0.68;67.13;102478.22;10455335;28;20538;-62
2022/01/12 12:48:39;;;;;;;22.40;9.87;;;;;;;0.77;67.75;102489.03;10455291;28;20220;-63
2022/01/12 12:53:47;;;;;;;21.43;8.27;;;;;;;0.71;67.38;102493.75;10470391;28;20664;-66
2022/01/12 12:58:52;;;;;;;19.30;8.97;;;;;;;0.66;67.61;102491.69;10494252;28;20216;-63
2022/01/12 13:03:58;;;;;;;19.13;8.07;;;;;;;0.55;67.85;102492.69;10499738;28;20238;-64
2022/01/12 13:09:06;;;;;;;21.60;10.70;;;;;;;0.59;68.58;102485.31;10498887;28;20234;-65
2022/01/12 13:14:11;;;;;;;25.57;10.83;;;;;;;0.69;68.69;102476.56;10499583;28;20220;-63
2022/01/12 13:19:23;;;;;;;23.97;11.93;;;;;;;0.82;69.44;102461.19;10502300;28;20295;-66
2022/01/12 13:24:27;;;;;;;27.87;12.33;;;;;;;0.43;69.76;102468.91;10507585;28;20216;-64
2022/01/12 13:29:31;;;;;;;26.43;12.93;;;;;;;0.56;70.34;102474.91;10506614;28;20280;-63
2022/01/12 13:34:41;;;;;;;26.67;12.77;;;;;;;0.61;69.52;102470.06;10507049;28;20227;-62
2022/01/12 13:39:49;;;;;;;27.27;12.53;;;;;;;0.61;70.01;102452.19;10506344;28;20242;-63
2022/01/12 13:45:03;;;;;;;36.40;14.87;;;;;;;0.47;70.25;102456.44;10506797;28;20218;-62
2022/01/12 13:50:10;;;;;;;39.33;19.07;;;;;;;0.58;70.76;102446.91;10505622;28;20243;-73
2022/01/12 13:55:16;;;;;;;31.80;13.90;;;;;;;0.58;70.55;102442.69;10506474;28;20522;-68
2022/01/12 14:00:20;;;;;;;27.07;11.87;;;;;;;0.27;71.10;102433.84;10505462;28;20303;-66
2022/01/12 14:05:31;;;;;;;26.63;11.43;;;;;;;0.31;71.18;102429.81;10505418;28;20232;-67
2022/01/12 14:10:35;;;;;;;28.73;13.90;;;;;;;0.15;71.80;102420.31;10464734;28;20558;-65
2022/01/12 14:15:39;;;;;;;38.10;14.47;;;;;;;0.11;72.21;102432.75;10463902;28;20217;-64
2022/01/12 14:20:45;;;;;;;28.60;14.63;;;;;;;0.11;73.07;102436.19;10463849;28;20292;-63
2022/01/12 14:25:52;;;;;;;35.73;14.77;;;;;;;0.21;73.29;102441.09;10463747;28;20223;-64
2022/01/12 14:30:55;;;;;;;34.40;15.47;;;;;;;0.10;73.99;102436.09;10502815;28;20228;-61
2022/01/12 14:35:59;;;;;;;33.00;16.57;;;;;;;-0.16;74.29;102453.16;10504849;28;20248;-63
2022/01/12 14:41:03;;;;;;;30.63;14.63;;;;;;;-0.26;74.85;102445.66;10463717;28;20203;-64
2022/01/12 14:46:06;;;;;;;32.30;14.80;;;;;;;-0.30;75.75;102450.47;10462802;28;20634;-65
2022/01/12 14:51:10;;;;;;;27.43;14.83;;;;;;;-0.24;75.69;102446.63;10462939;28;20234;-68
2022/01/12 14:56:14;;;;;;;32.70;15.27;;;;;;;-0.23;76.41;102445.88;10463081;28;20228;-70
2022/01/12 15:01:18;;;;;;;29.70;13.73;;;;;;;-0.15;76.33;102437.06;10462734;28;20197;-63
2022/01/12 15:06:21;;;;;;;28.50;12.87;;;;;;;-0.31;76.38;102434.25;10460788;28;20316;-66
2022/01/12 15:11:26;;;;;;;24.50;12.37;;;;;;;-0.27;77.07;102435.34;10149403;27;10000600;-65
2022/01/12 15:16:31;;;;;;;25.40;13.57;;;;;;;-0.33;78.25;102434.97;10500032;28;20206;-67
2022/01/12 15:21:36;;;;;;;28.30;12.80;;;;;;;-0.19;77.16;102424.00;10499318;28;20540;-63
2022/01/12 15:26:41;;;;;;;33.30;14.90;;;;;;;-0.28;77.11;102419.19;10499457;28;20668;-69
2022/01/12 15:31:44;;;;;;;27.23;13.10;;;;;;;-0.32;77.87;102412.09;10498751;28;20532;-69
2022/01/12 15:36:47;;;;;;;42.87;14.47;;;;;;;-0.26;78.68;102412.50;10499625;28;20333;-63
2022/01/12 15:41:52;;;;;;;31.57;15.00;;;;;;;-0.23;78.84;102415.28;10497893;28;20613;-65
2022/01/12 15:46:55;;;;;;;32.30;14.77;;;;;;;-0.06;78.76;102411.25;10498546;28;20223;-64
2022/01/12 15:52:00;;;;;;;28.67;13.53;;;;;;;-0.12;79.32;102408.28;10498146;28;20196;-67
2022/01/12 15:57:07;;;;;;;32.93;16.00;;;;;;;-0.15;79.65;102400.44;10498439;28;20200;-66
2022/01/12 16:02:10;;;;;;;39.47;16.33;;;;;;;-0.19;80.30;102408.69;10497698;28;20303;-64
2022/01/12 16:07:14;;;;;;;43.40;19.23;;;;;;;-0.13;80.50;102402.31;10503980;28;20219;-64
2022/01/12 16:12:19;;;;;;;42.17;18.77;;;;;;;-0.24;81.58;102384.53;10458652;28;20197;-64
2022/01/12 16:17:45;;;;;;;46.53;20.20;;;;;;;-0.25;83.11;102387.88;10456242;28;20216;-65
2022/01/12 16:22:48;;;;;;;44.60;21.67;;;;;;;-0.28;83.56;102386.03;10456590;28;20208;-67
2022/01/12 16:27:54;;;;;;;45.37;21.83;;;;;;;-0.23;83.50;102381.22;10487703;28;20295;-61
2022/01/12 16:32:57;;;;;;;41.20;20.63;;;;;;;-0.36;84.96;102389.72;10479023;28;20188;-65
2022/01/12 16:38:00;;;;;;;44.33;21.67;;;;;;;-0.18;84.47;102385.84;10500493;28;20303;-61
2022/01/12 16:43:05;;;;;;;44.67;20.97;;;;;;;-0.14;83.92;102387.78;10500691;28;20303;-66
2022/01/12 16:48:09;;;;;;;48.93;21.27;;;;;;;-0.07;84.31;102379.75;10500419;28;20223;-64
2022/01/12 16:53:13;;;;;;;45.63;22.63;;;;;;;0.07;85.03;102378.06;10502142;28;20216;-63
2022/01/12 16:58:17;;;;;;;47.57;22.17;;;;;;;-0.03;85.00;102365.50;10508535;28;20230;-64
2022/01/12 17:03:20;;;;;;;50.70;23.07;;;;;;;-0.25;86.21;102360.72;10508324;28;20220;-65
2022/01/12 17:08:24;;;;;;;43.57;20.93;;;;;;;0.03;86.32;102373.56;10508311;28;20653;-67
2022/01/12 17:13:28;;;;;;;71.20;31.87;;;;;;;-0.12;86.07;102376.00;10507769;28;20216;-64
2022/01/12 17:18:53;;;;;;;56.93;25.87;;;;;;;-0.05;86.62;102361.97;10507835;28;20226;-66
2022/01/12 17:24:18;;;;;;;55.73;27.77;;;;;;;-0.22;87.75;102372.75;10507864;28;20223;-64
2022/01/12 17:29:23;;;;;;;65.27;32.30;;;;;;;0.09;87.70;102355.22;10507884;28;20240;-70
2022/01/12 17:34:28;;;;;;;55.97;26.53;;;;;;;-0.07;88.20;102356.78;10507265;28;20188;-64
2022/01/12 17:39:36;;;;;;;53.73;25.37;;;;;;;-0.23;89.03;102353.16;10506132;28;20659;-69
2022/01/12 17:44:44;;;;;;;57.40;24.33;;;;;;;-0.25;89.41;102349.59;10504351;28;20188;-62
2022/01/12 17:55:12;;;;;;;61.30;28.20;;;;;;;-0.15;89.82;102327.34;10504182;28;20244;-66
2022/01/12 18:00:19;;;;;;;66.90;31.37;;;;;;;-0.20;89.50;102325.28;10506534;28;20192;-67
2022/01/12 18:05:23;;;;;;;64.00;28.57;;;;;;;-0.33;90.23;102338.91;10505718;28;20246;-68
2022/01/12 18:10:26;;;;;;;58.70;25.83;;;;;;;-0.29;90.96;102338.31;10506019;28;20220;-66
2022/01/12 18:15:40;;;;;;;66.90;29.30;;;;;;;-0.31;91.22;102326.28;10504633;28;20651;-64
2022/01/12 18:20:43;;;;;;;61.77;27.93;;;;;;;-0.26;90.88;102310.44;10505784;28;20285;-69
2022/01/12 18:25:46;;;;;;;70.73;30.53;;;;;;;-0.33;91.58;102313.38;10505319;28;20732;-66
2022/01/12 18:30:51;;;;;;;59.83;27.30;;;;;;;-0.17;91.11;102317.81;10505011;28;20222;-68
2022/01/12 18:35:54;;;;;;;64.13;27.53;;;;;;;-0.15;90.66;102303.50;10504837;28;20255;-63
2022/01/12 18:40:58;;;;;;;66.90;29.47;;;;;;;-0.21;91.33;102293.78;10504786;28;20219;-68
2022/01/12 18:46:04;;;;;;;63.57;29.93;;;;;;;0.06;90.82;102283.53;10504511;28;20220;-70
2022/01/12 18:51:09;;;;;;;71.97;32.03;;;;;;;-0.22;91.34;102257.97;10504492;28;20220;-66
2022/01/12 18:56:12;;;;;;;63.40;27.43;;;;;;;-0.19;92.12;102270.94;10504140;28;20654;-69
2022/01/12 19:01:17;;;;;;;58.27;27.93;;;;;;;-0.23;92.12;102282.63;10503941;28;20220;-69
2022/01/12 19:06:34;;;;;;;71.67;30.27;;;;;;;-0.17;92.62;102280.44;10503720;28;20220;-61
2022/01/12 19:11:40;;;;;;;59.83;26.97;;;;;;;0.14;91.79;102287.47;10503431;28;20293;-69
2022/01/12 19:16:47;;;;;;;69.10;30.63;;;;;;;-0.13;91.92;102273.84;10502471;28;20216;-65
2022/01/12 19:21:54;;;;;;;63.93;29.10;;;;;;;-0.14;92.80;102272.97;10503319;28;20219;-67
2022/01/12 19:26:57;;;;;;;64.70;29.23;;;;;;;-0.13;92.40;102277.31;10502203;28;20608;-66
2022/01/12 19:32:07;;;;;;;67.87;32.17;;;;;;;-0.23;93.73;102267.31;10499516;28;20603;-67
2022/01/12 19:37:10;;;;;;;68.30;30.13;;;;;;;-0.12;93.71;102262.84;10499379;28;20216;-69
2022/01/12 19:42:14;;;;;;;69.40;31.33;;;;;;;-0.20;93.61;102259.84;10498973;28;20220;-65
2022/01/12 19:47:19;;;;;;;74.37;31.97;;;;;;;-0.23;94.31;102256.22;10499057;28;20212;-65
2022/01/12 19:52:39;;;;;;;69.67;32.73;;;;;;;-0.24;94.57;102247.66;10498685;28;20301;-65
2022/01/12 19:57:48;;;;;;;69.03;29.00;;;;;;;0.06;93.09;102271.69;10498552;28;20216;-66
2022/01/12 20:03:07;;;;;;;74.37;33.17;;;;;;;0.20;91.52;102267.41;10498316;28;20320;-68
2022/01/12 20:08:35;;;;;;;75.50;30.10;;;;;;;0.16;91.81;102260.34;10498038;28;20295;-67
2022/01/12 20:13:39;;;;;;;70.00;28.63;;;;;;;0.31;91.93;102256.22;10176782;27;10000189;-68
2022/01/12 20:24:26;;;;;;;68.20;31.90;;;;;;;0.20;92.52;102236.78;10539526;28;20222;-67
2022/01/12 20:29:31;;;;;;;67.20;31.97;;;;;;;0.17;92.88;102232.41;10539477;28;20211;-64
2022/01/12 20:34:40;;;;;;;66.50;30.53;;;;;;;0.30;91.54;102229.78;10539235;28;20527;-71
2022/01/12 20:39:44;;;;;;;69.47;30.20;;;;;;;0.22;92.08;102227.56;10539337;28;20290;-64
2022/01/12 20:44:52;;;;;;;67.40;29.37;;;;;;;0.33;92.00;102217.19;10539270;28;20559;-66
2022/01/12 20:49:57;;;;;;;63.30;28.73;;;;;;;0.22;92.98;102235.22;10538806;28;20659;-66
2022/01/12 20:55:00;;;;;;;64.03;28.33;;;;;;;0.21;93.23;102233.47;10539201;28;20278;-67
2022/01/12 21:00:06;;;;;;;64.60;29.07;;;;;;;0.07;94.94;102244.50;10538786;28;20241;-66
2022/01/12 21:05:13;;;;;;;64.63;28.27;;;;;;;0.07;95.98;102232.59;10538450;28;20223;-69
2022/01/12 21:10:16;;;;;;;59.97;27.20;;;;;;;0.18;96.21;102230.69;10536678;28;20199;-66
2022/01/12 21:15:24;;;;;;;54.00;25.33;;;;;;;0.31;95.38;102235.78;10496543;28;20218;-67
2022/01/12 21:20:29;;;;;;;57.20;26.07;;;;;;;0.30;95.81;102228.91;10496782;28;20207;-64
2022/01/12 21:25:33;;;;;;;107.13;48.90;;;;;;;0.37;96.69;102238.69;10496530;28;20234;-66
2022/01/12 21:30:39;;;;;;;52.93;23.80;;;;;;;0.25;98.45;102235.41;10496231;28;20260;-68
2022/01/12 21:35:54;;;;;;;47.00;22.57;;;;;;;0.44;98.05;102236.63;10496502;28;20242;-67
2022/01/12 21:41:22;;;;;;;55.30;24.37;;;;;;;0.18;100.00;102231.59;10501210;28;20533;-67
2022/01/12 21:46:31;;;;;;;57.30;25.87;;;;;;;0.07;100.00;102227.50;10502729;28;20231;-65
2022/01/12 21:51:39;;;;;;;49.33;22.90;;;;;;;0.26;100.00;102221.88;10503868;28;20216;-70
2022/01/12 21:56:44;;;;;;;55.33;24.40;;;;;;;0.23;100.00;102217.44;10503344;28;20686;-66
2022/01/12 22:01:49;;;;;;;55.67;24.20;;;;;;;0.24;100.00;102220.88;10503439;28;20226;-64
2022/01/12 22:06:55;;;;;;;52.53;26.07;;;;;;;0.23;100.00;102207.22;10502960;28;20319;-65
2022/01/12 22:11:58;;;;;;;59.27;27.50;;;;;;;0.06;100.00;102194.22;10519075;28;20207;-67
2022/01/12 22:17:01;;;;;;;51.87;25.40;;;;;;;0.10;100.00;102188.53;10544792;28;20222;-68
2022/01/12 22:22:06;;;;;;;51.07;25.83;;;;;;;0.21;100.00;102185.81;10544281;28;20684;-64
2022/01/12 22:27:10;;;;;;;55.97;24.70;;;;;;;0.37;100.00;102182.53;10544746;28;20222;-64
2022/01/12 22:32:13;;;;;;;56.40;27.17;;;;;;;0.24;100.00;102180.94;10543964;28;20238;-65
2022/01/12 22:37:18;;;;;;;58.60;27.27;;;;;;;0.06;100.00;102174.69;10543727;28;20294;-65
2022/01/12 22:42:21;;;;;;;69.87;29.60;;;;;;;0.10;100.00;102160.44;10543687;28;20268;-62
2022/01/12 22:47:24;;;;;;;64.13;28.30;;;;;;;0.23;100.00;102155.28;10543137;28;20231;-65
2022/01/12 22:52:29;;;;;;;61.47;29.87;;;;;;;0.20;100.00;102150.88;10541099;28;20215;-66
2022/01/12 22:57:42;;;;;;;60.83;26.47;;;;;;;0.17;100.00;102147.28;10461457;28;20240;-68
2022/01/12 23:02:45;;;;;;;64.33;26.97;;;;;;;0.31;100.00;102133.66;10459509;28;20239;-64
2022/01/12 23:07:53;;;;;;;56.57;26.07;;;;;;;0.24;100.00;102134.97;10459277;28;20328;-67
2022/01/12 23:12:56;;;;;;;62.83;27.33;;;;;;;0.31;100.00;102154.09;10507150;28;20229;-68
2022/01/12 23:18:00;;;;;;;63.03;26.60;;;;;;;0.16;100.00;102165.91;10541966;28;20563;-67
2022/01/12 23:23:04;;;;;;;56.43;25.07;;;;;;;0.35;100.00;102149.25;10542155;28;20215;-69
2022/01/12 23:28:08;;;;;;;63.30;26.57;;;;;;;0.46;100.00;102158.44;10541632;28;20237;-64
2022/01/12 23:33:23;;;;;;;66.90;27.60;;;;;;;0.32;100.00;102138.84;10541351;28;20330;-66
2022/01/12 23:48:29;;;;;;;56.50;23.03;;;;;;;0.29;100.00;102155.66;10541089;28;20569;-67
2022/01/12 23:49:31;;;;;;;61.60;25.50;;;;;;;0.44;100.00;102136.13;10540650;28;20556;-66
2022/01/12 23:59:57;;;;;;;56.97;24.80;;;;;;;0.51;100.00;102154.47;10540580;28;20299;-69
